createdAt,value
2022-08-08T00:00:52.783Z,21.67
2022-08-08T00:03:13.280Z,21.65
2022-08-08T00:06:03.299Z,21.63
2022-08-08T00:08:39.511Z,21.65
2022-08-08T00:11:14.738Z,21.61
2022-08-08T00:14:17.188Z,21.62
2022-08-08T00:17:22.899Z,21.56
2022-08-08T00:20:14.646Z,21.55
2022-08-08T00:22:49.164Z,21.57
2022-08-08T00:25:38.986Z,21.57
2022-08-08T00:28:34.659Z,21.53
2022-08-08T00:32:21.542Z,21.50
2022-08-08T00:34:23.724Z,21.51
2022-08-08T00:37:03.551Z,21.47
2022-08-08T00:41:09.041Z,21.46
2022-08-08T00:42:53.193Z,21.44
2022-08-08T00:45:55.196Z,21.42
2022-08-08T00:49:00.939Z,21.39
2022-08-08T00:51:44.589Z,21.35
2022-08-08T00:54:39.196Z,21.37
2022-08-08T00:57:23.471Z,21.36
2022-08-08T01:00:13.399Z,21.34
2022-08-08T01:03:59.471Z,21.35
2022-08-08T01:06:13.821Z,21.34
2022-08-08T01:09:35.390Z,21.30
2022-08-08T01:12:50.577Z,21.27
2022-08-08T01:15:44.186Z,21.26
2022-08-08T01:18:25.055Z,21.26
2022-08-08T01:22:12.790Z,21.25
2022-08-08T01:24:58.950Z,21.24
2022-08-08T01:28:06.985Z,21.23
2022-08-08T01:31:03.670Z,21.23
2022-08-08T01:34:11.813Z,21.21
2022-08-08T01:37:51.045Z,21.20
2022-08-08T01:40:43.824Z,21.16
2022-08-08T01:43:39.518Z,21.15
2022-08-08T01:46:52.900Z,21.15
2022-08-08T01:49:37.479Z,21.17
2022-08-08T01:54:05.396Z,21.15
2022-08-08T01:56:26.895Z,21.14
2022-08-08T01:58:46.414Z,21.14
2022-08-08T02:01:22.825Z,21.15
2022-08-08T02:04:16.830Z,21.13
2022-08-08T02:06:58.561Z,21.14
2022-08-08T02:10:03.182Z,21.16
2022-08-08T02:13:52.545Z,21.09
2022-08-08T02:16:21.402Z,21.08
2022-08-08T02:19:57.021Z,21.09
2022-08-08T02:22:52.983Z,21.07
2022-08-08T02:25:43.622Z,21.06
2022-08-08T02:28:26.006Z,20.80
2022-08-08T02:31:59.401Z,20.96
2022-08-08T02:34:09.823Z,21.00
2022-08-08T02:36:54.733Z,21.04
2022-08-08T02:40:00.165Z,21.05
2022-08-08T02:44:35.889Z,21.01
2022-08-08T02:46:12.673Z,20.99
2022-08-08T02:49:06.804Z,21.00
2022-08-08T02:51:56.338Z,21.00
2022-08-08T02:54:45.381Z,20.99
2022-08-08T02:57:52.585Z,20.97
2022-08-08T03:00:56.218Z,20.97
2022-08-08T03:05:03.518Z,20.92
2022-08-08T03:07:21.557Z,20.91
2022-08-08T03:10:33.468Z,20.89
2022-08-08T03:15:59.452Z,20.86
2022-08-08T03:16:43.334Z,20.62
2022-08-08T03:19:20.293Z,20.80
2022-08-08T03:21:58.283Z,20.84
2022-08-08T03:24:28.839Z,20.85
2022-08-08T03:27:19.553Z,20.87
2022-08-08T03:29:56.133Z,20.89
2022-08-08T03:32:53.270Z,20.84
2022-08-08T03:35:33.137Z,20.85
2022-08-08T03:38:54.981Z,20.82
2022-08-08T03:40:52.322Z,20.84
2022-08-08T03:43:21.742Z,20.83
2022-08-08T03:46:09.088Z,20.85
2022-08-08T03:49:55.008Z,20.81
2022-08-08T03:51:50.709Z,20.56
2022-08-08T03:54:52.491Z,20.67
2022-08-08T03:58:30.675Z,20.76
2022-08-08T04:00:11.785Z,20.51
2022-08-08T04:03:00.405Z,20.64
2022-08-08T04:05:29.836Z,20.67
2022-08-08T04:08:03.788Z,20.74
2022-08-08T04:10:32.803Z,20.73
2022-08-08T04:13:08.295Z,20.72
2022-08-08T04:15:54.880Z,20.72
2022-08-08T04:18:44.589Z,20.68
2022-08-08T04:21:13.592Z,20.69
2022-08-08T04:24:05.797Z,20.69
2022-08-08T04:26:35.509Z,20.69
2022-08-08T04:29:07.732Z,20.69
2022-08-08T04:31:59.045Z,20.72
2022-08-08T04:34:23.925Z,20.72
2022-08-08T04:36:55.537Z,20.70
2022-08-08T04:39:22.556Z,20.75
2022-08-08T04:42:11.296Z,20.72
2022-08-08T04:44:43.131Z,20.72
2022-08-08T04:47:16.536Z,20.75
2022-08-08T04:50:00.662Z,20.76
2022-08-08T04:52:35.277Z,20.74
2022-08-08T04:55:08.025Z,20.75
2022-08-08T04:57:35.805Z,20.79
2022-08-08T05:00:05.249Z,20.80
2022-08-08T05:02:34.161Z,20.81
2022-08-08T05:05:03.312Z,20.81
2022-08-08T05:07:42.113Z,20.84
2022-08-08T05:10:13.239Z,20.82
2022-08-08T05:12:42.974Z,20.88
2022-08-08T05:15:31.449Z,20.89
2022-08-08T05:18:16.146Z,20.86
2022-08-08T05:20:50.540Z,20.94
2022-08-08T05:23:20.551Z,20.98
2022-08-08T05:25:49.668Z,20.97
2022-08-08T05:28:56.288Z,21.02
2022-08-08T05:31:08.798Z,21.02
2022-08-08T05:33:53.000Z,21.03
2022-08-08T05:36:23.271Z,21.07
2022-08-08T05:38:54.273Z,21.10
2022-08-08T05:41:23.725Z,21.14
2022-08-08T05:44:03.666Z,21.16
2022-08-08T05:46:33.283Z,21.20
2022-08-08T05:49:01.713Z,21.23
2022-08-08T05:51:48.379Z,21.27
2022-08-08T05:54:28.526Z,21.28
2022-08-08T05:57:15.196Z,21.32
2022-08-08T05:59:58.802Z,21.38
2022-08-08T06:02:59.773Z,21.37
2022-08-08T06:05:35.597Z,21.43
2022-08-08T06:08:10.165Z,21.47
2022-08-08T06:10:57.524Z,21.53
2022-08-08T06:13:26.059Z,21.55
2022-08-08T06:15:58.469Z,21.61
2022-08-08T06:18:43.115Z,21.65
2022-08-08T06:21:11.677Z,21.69
2022-08-08T06:24:03.450Z,21.74
2022-08-08T06:26:43.909Z,21.81
2022-08-08T06:29:48.545Z,21.86
2022-08-08T06:32:11.344Z,21.86
2022-08-08T06:34:56.385Z,21.95
2022-08-08T06:37:44.991Z,21.99
2022-08-08T06:40:17.075Z,22.02
2022-08-08T06:43:10.221Z,22.09
2022-08-08T06:45:48.246Z,22.12
2022-08-08T06:48:17.957Z,22.23
2022-08-08T06:50:45.450Z,22.31
2022-08-08T06:53:20.181Z,22.37
2022-08-08T06:56:01.907Z,22.39
2022-08-08T06:58:33.101Z,22.45
2022-08-08T07:01:11.582Z,22.47
2022-08-08T07:04:38.646Z,22.50
2022-08-08T07:07:00.422Z,22.49
2022-08-08T07:09:45.174Z,22.59
2022-08-08T07:12:13.862Z,22.60
2022-08-08T07:14:51.876Z,22.64
2022-08-08T07:17:23.861Z,22.67
2022-08-08T07:20:11.160Z,22.73
2022-08-08T07:22:57.970Z,22.74
2022-08-08T07:25:29.416Z,22.76
2022-08-08T07:28:18.788Z,22.79
2022-08-08T07:30:49.808Z,22.82
2022-08-08T07:33:25.033Z,22.92
2022-08-08T07:35:54.947Z,22.93
2022-08-08T07:38:24.807Z,22.96
2022-08-08T07:41:04.614Z,23.00
2022-08-08T07:43:37.057Z,23.04
2022-08-08T07:46:23.287Z,23.03
2022-08-08T07:48:58.210Z,23.10
2022-08-08T07:51:45.425Z,23.14
2022-08-08T07:54:26.759Z,23.16
2022-08-08T07:57:10.393Z,23.23
2022-08-08T07:59:51.204Z,23.21
2022-08-08T08:02:36.671Z,23.24
2022-08-08T08:05:18.538Z,23.28
2022-08-08T08:07:53.137Z,23.30
2022-08-08T08:10:30.271Z,23.33
2022-08-08T08:13:42.130Z,23.37
2022-08-08T08:16:32.417Z,23.41
2022-08-08T08:19:04.292Z,23.52
2022-08-08T08:21:53.494Z,23.58
2022-08-08T08:24:36.374Z,23.62
2022-08-08T08:27:09.313Z,23.73
2022-08-08T08:29:39.925Z,23.82
2022-08-08T08:32:11.305Z,23.92
2022-08-08T08:34:43.441Z,24.00
2022-08-08T08:40:02.026Z,24.18
2022-08-08T08:42:36.188Z,24.26
2022-08-08T08:45:21.942Z,24.36
2022-08-08T08:47:54.274Z,24.48
2022-08-08T08:50:33.909Z,24.56
2022-08-08T08:53:55.116Z,24.63
2022-08-08T08:56:04.236Z,24.68
2022-08-08T08:58:37.940Z,24.80
2022-08-08T09:01:09.590Z,24.85
2022-08-08T09:03:46.832Z,24.94
2022-08-08T09:06:28.853Z,24.98
2022-08-08T09:09:25.823Z,25.02
2022-08-08T09:12:13.294Z,25.08
2022-08-08T09:14:45.116Z,25.19
2022-08-08T09:17:19.149Z,25.24
2022-08-08T09:21:58.983Z,25.31
2022-08-08T09:22:55.246Z,25.37
2022-08-08T09:25:36.250Z,25.41
2022-08-08T09:28:12.940Z,25.46
2022-08-08T09:31:12.187Z,25.50
2022-08-08T09:34:06.064Z,25.54
2022-08-08T09:36:29.920Z,25.58
2022-08-08T09:39:00.302Z,25.66
2022-08-08T09:42:14.983Z,25.68
2022-08-08T09:44:57.782Z,25.67
2022-08-08T09:48:04.297Z,25.70
2022-08-08T09:50:22.711Z,25.79
2022-08-08T09:53:00.369Z,25.84
2022-08-08T09:56:04.921Z,25.87
2022-08-08T09:58:27.985Z,25.95
2022-08-08T10:01:14.249Z,25.98
2022-08-08T10:03:42.767Z,26.08
2022-08-08T10:06:17.445Z,26.17
2022-08-08T10:08:46.698Z,26.24
2022-08-08T10:12:26.277Z,26.31
2022-08-08T10:14:38.400Z,26.35
2022-08-08T10:17:57.378Z,26.44
2022-08-08T10:20:01.841Z,26.56
2022-08-08T10:22:32.530Z,26.67
2022-08-08T10:25:16.842Z,26.83
2022-08-08T10:28:36.204Z,26.89
2022-08-08T10:32:06.573Z,26.93
2022-08-08T10:36:08.410Z,27.05
2022-08-08T10:46:30.317Z,27.59
2022-08-08T10:48:59.402Z,27.79
2022-08-08T10:51:50.794Z,27.94
2022-08-08T10:54:25.219Z,28.13
2022-08-08T10:57:01.178Z,28.28
2022-08-08T10:59:31.430Z,28.35
2022-08-08T11:02:18.210Z,28.46
2022-08-08T11:04:53.981Z,28.61
2022-08-08T11:08:31.334Z,28.72
2022-08-08T11:10:28.358Z,28.87
2022-08-08T11:15:58.844Z,29.09
2022-08-08T11:19:02.796Z,29.23
2022-08-08T11:25:13.912Z,29.42
2022-08-08T11:27:48.995Z,29.50
2022-08-08T11:30:24.971Z,29.54
2022-08-08T11:33:12.356Z,29.64
2022-08-08T11:36:14.224Z,29.70
2022-08-08T11:41:50.621Z,29.73
2022-08-08T11:44:52.481Z,29.68
2022-08-08T11:48:06.049Z,29.63
2022-08-08T12:30:58.919Z,28.57
2022-08-08T12:43:13.025Z,28.24
2022-08-08T12:46:05.935Z,28.21
2022-08-08T12:49:21.919Z,28.11
2022-08-08T13:35:55.243Z,27.13
2022-08-08T13:38:47.050Z,27.10
2022-08-08T13:41:52.784Z,27.05
2022-08-08T13:44:29.713Z,27.04
2022-08-08T13:47:08.296Z,27.02
2022-08-08T13:50:36.015Z,27.00
2022-08-08T13:52:59.566Z,26.98
2022-08-08T14:03:00.757Z,26.83
2022-08-08T14:05:34.679Z,26.83
2022-08-08T14:08:16.749Z,26.83
2022-08-08T14:11:14.797Z,26.79
2022-08-08T14:13:59.565Z,26.75
2022-08-08T14:16:33.495Z,26.73
2022-08-08T14:19:10.452Z,26.69
2022-08-08T14:21:48.810Z,26.69
2022-08-08T14:24:36.079Z,26.63
2022-08-08T14:27:07.523Z,26.60
2022-08-08T14:29:39.369Z,26.62
2022-08-08T14:32:16.032Z,26.57
2022-08-08T14:35:04.437Z,26.51
2022-08-08T14:37:43.065Z,26.22
2022-08-08T14:40:27.448Z,26.34
2022-08-08T14:42:59.650Z,26.42
2022-08-08T14:45:47.094Z,26.43
2022-08-08T14:48:34.045Z,26.31
2022-08-08T14:51:17.700Z,26.29
2022-08-08T14:53:55.757Z,26.26
2022-08-08T14:56:26.760Z,26.18
2022-08-08T14:58:56.338Z,26.14
2022-08-08T15:01:37.595Z,26.16
2022-08-08T15:04:10.408Z,26.12
2022-08-08T15:06:48.316Z,26.15
2022-08-08T15:09:20.051Z,26.14
2022-08-08T15:11:53.575Z,26.14
2022-08-08T15:14:25.046Z,26.14
2022-08-08T15:16:58.264Z,26.15
2022-08-08T15:19:40.623Z,26.09
2022-08-08T15:22:13.187Z,26.10
2022-08-08T15:24:50.173Z,26.10
2022-08-08T15:28:04.300Z,26.09
2022-08-08T15:30:12.666Z,26.12
2022-08-08T15:32:43.458Z,26.12
2022-08-08T15:35:16.266Z,26.10
2022-08-08T15:37:46.989Z,26.07
2022-08-08T15:40:18.912Z,26.10
2022-08-08T15:42:51.718Z,26.09
2022-08-08T15:45:29.927Z,26.09
2022-08-08T15:48:05.530Z,26.08
2022-08-08T15:51:06.072Z,26.07
2022-08-08T15:53:49.127Z,26.06
2022-08-08T15:56:22.542Z,26.09
2022-08-08T15:58:52.531Z,26.08
2022-08-08T16:01:24.440Z,26.09
2022-08-08T16:04:17.280Z,26.07
2022-08-08T16:06:59.976Z,26.01
2022-08-08T16:13:12.126Z,25.97
2022-08-08T16:13:28.206Z,25.95
2022-08-08T16:15:16.479Z,25.95
2022-08-08T16:17:57.522Z,25.71
2022-08-08T16:20:40.103Z,25.83
2022-08-08T16:23:36.958Z,25.94
2022-08-08T16:26:19.205Z,25.95
2022-08-08T16:28:56.356Z,25.92
2022-08-08T16:31:28.050Z,25.89
2022-08-08T16:34:00.409Z,25.90
2022-08-08T16:36:34.419Z,25.94
2022-08-08T16:39:16.694Z,25.89
2022-08-08T16:42:01.501Z,25.90
2022-08-08T16:44:36.283Z,25.90
2022-08-08T16:47:39.971Z,25.88
2022-08-08T16:50:16.411Z,25.90
2022-08-08T16:55:18.133Z,25.87
2022-08-08T16:55:54.331Z,25.85
2022-08-08T16:58:25.654Z,25.82
2022-08-08T17:01:02.596Z,25.84
2022-08-08T17:04:00.589Z,25.81
2022-08-08T17:06:36.849Z,25.76
2022-08-08T17:09:07.658Z,25.80
2022-08-08T17:11:49.111Z,25.80
2022-08-08T17:14:27.535Z,25.74
2022-08-08T17:17:05.754Z,25.73
2022-08-08T17:19:50.271Z,25.69
2022-08-08T17:22:18.007Z,25.69
2022-08-08T17:24:53.533Z,25.69
2022-08-08T17:27:21.268Z,25.68
2022-08-08T17:29:56.986Z,25.64
2022-08-08T17:32:28.972Z,25.62
2022-08-08T17:35:53.202Z,25.56
2022-08-08T17:37:55.614Z,25.52
2022-08-08T17:40:23.503Z,25.53
2022-08-08T17:42:54.127Z,25.50
2022-08-08T17:45:23.955Z,25.49
2022-08-08T17:47:52.133Z,25.49
2022-08-08T17:50:22.014Z,25.44
2022-08-08T17:52:49.877Z,25.41
2022-08-08T17:56:04.662Z,25.38
2022-08-08T17:58:04.236Z,25.31
2022-08-08T18:00:32.049Z,25.27
2022-08-08T18:03:09.363Z,25.25
2022-08-08T18:05:49.349Z,25.17
2022-08-08T18:08:24.419Z,25.17
2022-08-08T18:11:07.922Z,25.10
2022-08-08T18:13:42.098Z,25.09
2022-08-08T18:16:10.200Z,25.03
2022-08-08T18:18:45.117Z,24.99
2022-08-08T18:21:35.594Z,24.97
2022-08-08T18:24:17.650Z,24.87
2022-08-08T18:26:54.752Z,24.85
2022-08-08T18:29:33.976Z,24.82
2022-08-08T18:32:10.073Z,24.80
2022-08-08T18:34:43.668Z,24.75
2022-08-08T18:37:34.305Z,24.71
2022-08-08T18:40:05.822Z,24.64
2022-08-08T18:42:38.830Z,24.62
2022-08-08T18:46:00.627Z,24.57
2022-08-08T18:48:07.427Z,24.51
2022-08-08T18:50:39.460Z,24.50
2022-08-08T18:53:07.358Z,24.48
2022-08-08T18:55:35.740Z,24.44
2022-08-08T18:58:02.872Z,24.41
2022-08-08T19:00:31.253Z,24.37
2022-08-08T19:03:04.096Z,24.33
2022-08-08T19:05:43.957Z,24.31
2022-08-08T19:08:24.891Z,24.27
2022-08-08T19:11:01.283Z,24.21
2022-08-08T19:13:53.251Z,24.20
2022-08-08T19:16:19.154Z,24.15
2022-08-08T19:19:00.124Z,24.15
2022-08-08T19:21:33.669Z,24.08
2022-08-08T19:24:42.346Z,24.02
2022-08-08T19:27:56.018Z,23.96
2022-08-08T19:30:24.044Z,23.97
2022-08-08T19:32:58.181Z,23.89
2022-08-08T19:35:45.450Z,23.87
2022-08-08T19:38:17.392Z,23.87
2022-08-08T19:41:04.336Z,23.57
2022-08-08T19:44:02.346Z,23.64
2022-08-08T19:46:33.479Z,23.68
2022-08-08T19:49:10.033Z,23.66
2022-08-08T19:51:43.177Z,23.68
2022-08-08T19:54:16.306Z,23.66
2022-08-08T19:56:48.782Z,23.63
2022-08-08T19:59:22.465Z,23.58
2022-08-08T20:02:02.638Z,23.56
2022-08-08T20:04:33.490Z,23.53
2022-08-08T20:08:26.782Z,23.51
2022-08-08T20:09:55.681Z,23.45
2022-08-08T20:12:32.713Z,23.43
2022-08-08T20:15:17.253Z,23.40
2022-08-08T20:17:54.025Z,23.38
2022-08-08T20:20:23.354Z,23.37
2022-08-08T20:22:54.314Z,23.30
2022-08-08T20:25:31.742Z,23.28
2022-08-08T20:28:07.887Z,23.29
2022-08-08T20:30:55.772Z,23.19
2022-08-08T20:34:27.242Z,23.21
2022-08-08T20:36:25.972Z,23.14
2022-08-08T20:38:58.564Z,23.11
2022-08-08T20:41:29.595Z,23.05
2022-08-08T20:44:02.749Z,23.02
2022-08-08T20:46:39.992Z,23.03
2022-08-08T20:54:59.162Z,22.94
2022-08-08T20:57:43.870Z,22.88
2022-08-08T21:03:05.753Z,22.86
2022-08-08T21:05:49.412Z,22.78
2022-08-08T21:08:48.580Z,22.75
2022-08-08T21:11:52.242Z,22.68
2022-08-08T21:14:30.222Z,22.64
2022-08-08T21:17:06.661Z,22.61
2022-08-08T21:19:50.486Z,22.64
2022-08-08T21:22:41.052Z,22.57
2022-08-08T21:25:13.621Z,22.56
2022-08-08T21:28:14.371Z,22.53
2022-08-08T21:36:31.295Z,22.37
2022-08-08T21:39:19.703Z,22.36
2022-08-08T21:41:59.115Z,22.35
2022-08-08T21:49:16.700Z,22.12
2022-08-08T21:54:27.408Z,22.14
2022-08-08T21:55:02.005Z,22.12
2022-08-08T21:57:24.218Z,22.08
2022-08-08T22:00:03.703Z,22.08
